createdAt,value
2019-05-10T00:01:03.107Z,11.80
2019-05-10T00:03:51.000Z,11.80
2019-05-10T00:06:38.681Z,11.70
2019-05-10T00:09:07.534Z,11.70
2019-05-10T00:11:44.369Z,11.60
2019-05-10T00:14:27.596Z,11.60
2019-05-10T00:17:19.618Z,11.50
2019-05-10T00:19:52.749Z,11.50
2019-05-10T00:22:24.226Z,11.40
2019-05-10T00:25:03.874Z,11.40
2019-05-10T00:27:26.664Z,11.40
2019-05-10T00:29:56.168Z,11.30
2019-05-10T00:32:26.723Z,11.30
2019-05-10T00:34:56.522Z,11.30
2019-05-10T00:37:26.955Z,11.20
2019-05-10T00:39:56.700Z,11.20
2019-05-10T00:42:26.202Z,11.20
2019-05-10T00:44:56.597Z,11.10
2019-05-10T00:47:26.832Z,11.10
2019-05-10T00:49:56.773Z,11.10
2019-05-10T00:52:26.665Z,11.10
2019-05-10T00:54:57.006Z,11.10
2019-05-10T00:57:27.209Z,11.10
2019-05-10T00:59:57.053Z,11.10
2019-05-10T01:02:26.556Z,11.00
2019-05-10T01:04:56.803Z,11.00
2019-05-10T01:07:27.563Z,11.00
2019-05-10T01:09:57.407Z,11.00
2019-05-10T01:12:26.901Z,11.00
2019-05-10T01:14:57.123Z,11.00
2019-05-10T01:17:26.651Z,11.00
2019-05-10T01:19:57.804Z,11.00
2019-05-10T01:22:27.810Z,10.90
2019-05-10T01:24:57.635Z,10.90
2019-05-10T01:27:27.875Z,10.90
2019-05-10T01:29:58.373Z,10.80
2019-05-10T01:32:28.763Z,10.80
2019-05-10T01:34:58.630Z,10.80
2019-05-10T01:37:28.628Z,10.80
2019-05-10T01:39:58.256Z,10.80
2019-05-10T01:42:28.107Z,10.80
2019-05-10T01:44:58.170Z,10.70
2019-05-10T01:47:28.367Z,10.70
2019-05-10T01:49:58.204Z,10.70
2019-05-10T01:52:28.432Z,10.70
2019-05-10T01:54:58.294Z,10.70
2019-05-10T01:57:28.539Z,10.70
2019-05-10T01:59:58.342Z,10.70
2019-05-10T02:02:28.575Z,10.60
2019-05-10T02:04:57.995Z,10.60
2019-05-10T02:07:27.621Z,10.60
2019-05-10T02:09:57.183Z,10.70
2019-05-10T02:12:26.667Z,10.60
2019-05-10T02:14:56.547Z,10.60
2019-05-10T02:17:26.779Z,10.60
2019-05-10T02:19:56.567Z,10.60
2019-05-10T02:22:26.668Z,10.60
2019-05-10T02:24:56.584Z,10.60
2019-05-10T02:27:26.763Z,10.60
2019-05-10T02:29:56.678Z,10.60
2019-05-10T02:32:26.388Z,10.60
2019-05-10T02:34:56.753Z,10.60
2019-05-10T02:37:26.593Z,10.60
2019-05-10T02:39:57.529Z,10.60
2019-05-10T02:42:27.402Z,10.60
2019-05-10T02:44:57.247Z,10.60
2019-05-10T02:47:27.678Z,10.60
2019-05-10T02:49:59.298Z,10.50
2019-05-10T02:52:30.187Z,10.50
2019-05-10T02:55:00.076Z,10.50
2019-05-10T02:57:30.306Z,10.50
2019-05-10T03:00:01.924Z,10.50
2019-05-10T03:02:32.915Z,10.50
2019-05-10T03:05:04.575Z,10.50
2019-05-10T03:07:38.179Z,10.50
2019-05-10T03:10:10.032Z,10.50
2019-05-10T03:12:41.853Z,10.50
2019-05-10T03:15:14.679Z,10.40
2019-05-10T03:17:44.596Z,10.40
2019-05-10T03:20:15.023Z,10.40
2019-05-10T03:22:46.306Z,10.50
2019-05-10T03:25:16.115Z,10.50
2019-05-10T03:27:46.202Z,10.50
2019-05-10T03:30:16.049Z,10.60
2019-05-10T03:32:46.180Z,10.60
2019-05-10T03:35:15.756Z,10.70
2019-05-10T03:37:47.761Z,10.70
2019-05-10T03:40:17.410Z,10.80
2019-05-10T03:42:47.428Z,10.90
2019-05-10T03:45:17.530Z,10.90
2019-05-10T03:47:47.686Z,11.00
2019-05-10T03:50:17.741Z,11.00
2019-05-10T03:52:51.809Z,11.00
2019-05-10T03:55:18.944Z,11.10
2019-05-10T03:57:48.763Z,11.10
2019-05-10T04:00:18.432Z,11.20
2019-05-10T04:02:48.382Z,11.20
2019-05-10T04:05:18.653Z,11.30
2019-05-10T04:07:48.155Z,11.30
2019-05-10T04:10:20.969Z,11.30
2019-05-10T04:12:50.460Z,11.40
2019-05-10T04:15:20.203Z,11.30
2019-05-10T04:17:50.477Z,11.30
2019-05-10T04:20:20.286Z,11.30
2019-05-10T04:22:49.968Z,11.30
2019-05-10T04:25:19.841Z,11.40
2019-05-10T04:27:50.108Z,11.50
2019-05-10T04:30:21.051Z,11.50
2019-05-10T04:32:51.328Z,11.50
2019-05-10T04:35:21.483Z,11.60
2019-05-10T04:37:51.827Z,11.70
2019-05-10T04:40:21.405Z,11.60
2019-05-10T04:42:51.716Z,11.70
2019-05-10T04:45:21.950Z,11.80
2019-05-10T04:47:52.375Z,11.80
2019-05-10T04:50:22.684Z,11.80
2019-05-10T04:52:52.425Z,11.90
2019-05-10T04:55:21.990Z,11.90
2019-05-10T04:57:52.166Z,12.00
2019-05-10T05:00:22.636Z,12.10
2019-05-10T05:02:52.755Z,12.20
2019-05-10T05:05:23.497Z,12.40
2019-05-10T05:07:53.418Z,12.50
2019-05-10T05:10:23.726Z,12.60
2019-05-10T05:12:53.689Z,12.70
2019-05-10T05:15:23.459Z,12.80
2019-05-10T05:17:53.220Z,12.90
2019-05-10T05:20:23.134Z,13.10
2019-05-10T05:22:53.309Z,13.30
2019-05-10T05:25:23.660Z,13.40
2019-05-10T05:28:06.427Z,13.60
2019-05-10T05:30:25.098Z,13.70
2019-05-10T05:32:56.937Z,13.80
2019-05-10T05:35:27.120Z,13.80
2019-05-10T05:37:56.673Z,13.90
2019-05-10T05:40:27.312Z,13.80
2019-05-10T05:42:56.790Z,13.90
2019-05-10T05:45:28.344Z,14.00
2019-05-10T05:47:58.725Z,14.20
2019-05-10T05:50:28.780Z,14.20
2019-05-10T05:52:58.375Z,14.20
2019-05-10T05:55:30.717Z,14.40
2019-05-10T05:58:04.615Z,14.50
2019-05-10T06:00:37.835Z,14.60
2019-05-10T06:03:03.281Z,14.60
2019-05-10T06:05:36.729Z,14.70
2019-05-10T06:08:21.788Z,14.90
2019-05-10T06:10:38.031Z,15.00
2019-05-10T06:13:08.459Z,15.20
2019-05-10T06:15:39.040Z,15.40
2019-05-10T06:18:10.153Z,15.50
2019-05-10T06:20:44.447Z,15.60
2019-05-10T06:23:13.382Z,15.60
2019-05-10T06:25:43.664Z,15.40
2019-05-10T06:28:26.253Z,15.60
2019-05-10T06:30:45.810Z,15.70
2019-05-10T06:33:15.661Z,15.80
2019-05-10T06:35:45.703Z,15.80
2019-05-10T06:38:15.802Z,15.90
2019-05-10T06:40:47.747Z,15.90
2019-05-10T06:43:17.504Z,16.10
2019-05-10T06:45:52.607Z,16.20
2019-05-10T06:48:27.488Z,16.30
2019-05-10T06:50:52.051Z,16.30
2019-05-10T06:53:23.408Z,16.40
2019-05-10T06:55:54.307Z,16.60
2019-05-10T06:58:24.555Z,16.80
2019-05-10T07:00:55.355Z,16.80
2019-05-10T07:03:25.888Z,16.80
2019-05-10T07:05:57.012Z,17.10
2019-05-10T07:08:27.504Z,17.10
2019-05-10T07:10:57.416Z,17.00
2019-05-10T07:13:27.873Z,17.00
2019-05-10T07:15:57.909Z,17.00
2019-05-10T07:18:28.414Z,17.00
2019-05-10T07:21:00.963Z,17.00
2019-05-10T07:23:30.730Z,16.90
2019-05-10T07:26:00.626Z,16.90
2019-05-10T07:28:30.414Z,16.80
2019-05-10T07:31:00.291Z,16.80
2019-05-10T07:33:32.250Z,16.70
2019-05-10T07:36:02.988Z,17.00
2019-05-10T07:38:33.887Z,17.10
2019-05-10T07:41:04.443Z,17.20
2019-05-10T07:43:34.761Z,17.40
2019-05-10T07:46:08.929Z,17.50
2019-05-10T07:48:35.616Z,17.50
2019-05-10T07:51:06.301Z,17.60
2019-05-10T07:53:36.797Z,17.70
2019-05-10T07:56:08.044Z,17.80
2019-05-10T07:58:42.795Z,17.60
2019-05-10T08:01:09.834Z,17.90
2019-05-10T08:03:44.187Z,18.20
2019-05-10T08:06:15.048Z,18.30
2019-05-10T08:08:43.652Z,18.40
2019-05-10T08:11:16.203Z,18.30
2019-05-10T08:13:48.484Z,18.00
2019-05-10T08:16:22.774Z,18.00
2019-05-10T08:18:49.903Z,17.80
2019-05-10T08:21:23.848Z,17.90
2019-05-10T08:23:51.919Z,17.90
2019-05-10T08:26:24.796Z,17.80
2019-05-10T08:28:54.851Z,17.70
2019-05-10T08:31:26.365Z,17.80
2019-05-10T08:33:59.025Z,17.70
2019-05-10T08:36:28.186Z,17.50
2019-05-10T08:39:07.033Z,17.30
2019-05-10T08:41:32.405Z,17.10
2019-05-10T08:44:04.645Z,16.80
2019-05-10T08:46:40.774Z,16.80
2019-05-10T08:49:05.598Z,16.50
2019-05-10T08:51:43.971Z,16.50
2019-05-10T08:54:06.883Z,16.30
2019-05-10T08:56:37.277Z,16.10
2019-05-10T08:59:09.406Z,16.00
2019-05-10T09:01:46.935Z,16.00
2019-05-10T09:04:13.759Z,15.90
2019-05-10T09:06:47.343Z,15.90
2019-05-10T09:09:17.618Z,16.00
2019-05-10T09:11:47.851Z,16.20
2019-05-10T09:14:19.922Z,16.30
2019-05-10T09:16:57.564Z,16.40
2019-05-10T09:19:36.140Z,16.60
2019-05-10T09:21:58.173Z,16.90
2019-05-10T09:24:27.781Z,17.20
2019-05-10T09:26:58.098Z,17.20
2019-05-10T09:29:35.213Z,17.60
2019-05-10T09:32:06.669Z,17.80
2019-05-10T09:34:43.855Z,18.00
2019-05-10T09:37:17.569Z,18.20
2019-05-10T09:39:45.238Z,18.50
2019-05-10T09:42:24.971Z,18.90
2019-05-10T09:44:47.380Z,19.30
2019-05-10T09:47:17.178Z,19.40
2019-05-10T09:49:56.535Z,19.60
2019-05-10T09:52:18.882Z,19.50
2019-05-10T09:54:49.674Z,19.20
2019-05-10T09:57:19.891Z,19.00
2019-05-10T09:59:49.498Z,18.60
2019-05-10T10:02:19.375Z,18.30
2019-05-10T10:04:49.501Z,18.10
2019-05-10T10:07:24.208Z,17.90
2019-05-10T10:09:50.979Z,17.80
2019-05-10T10:12:21.100Z,17.70
2019-05-10T10:14:51.095Z,17.60
2019-05-10T10:17:20.911Z,17.70
2019-05-10T10:19:51.132Z,17.80
2019-05-10T10:22:24.408Z,17.90
2019-05-10T10:24:57.034Z,18.10
2019-05-10T10:27:34.297Z,18.10
2019-05-10T10:29:57.938Z,17.90
2019-05-10T10:32:34.784Z,18.10
2019-05-10T10:35:02.293Z,18.30
2019-05-10T10:37:33.853Z,18.40
2019-05-10T10:40:07.855Z,18.30
2019-05-10T10:42:38.134Z,18.50
2019-05-10T10:45:09.636Z,18.70
2019-05-10T10:47:40.070Z,18.60
2019-05-10T10:50:13.531Z,18.60
2019-05-10T10:52:42.087Z,18.70
2019-05-10T10:55:13.456Z,18.50
2019-05-10T10:57:43.581Z,18.30
2019-05-10T11:00:13.271Z,18.10
2019-05-10T11:02:46.791Z,18.00
2019-05-10T11:05:15.163Z,17.90
2019-05-10T11:07:47.801Z,17.70
2019-05-10T11:10:22.251Z,17.30
2019-05-10T11:12:56.272Z,17.40
2019-05-10T11:15:27.831Z,17.40
2019-05-10T11:17:55.753Z,17.30
2019-05-10T11:20:25.706Z,17.10
2019-05-10T11:22:55.839Z,17.00
2019-05-10T11:25:26.113Z,17.00
2019-05-10T11:27:58.780Z,17.10
2019-05-10T11:30:28.177Z,17.10
2019-05-10T11:33:00.482Z,17.10
2019-05-10T11:35:34.483Z,17.00
2019-05-10T11:38:06.583Z,16.80
2019-05-10T11:40:35.325Z,16.70
2019-05-10T11:43:05.190Z,16.70
2019-05-10T11:45:36.690Z,16.70
2019-05-10T11:48:06.954Z,16.90
2019-05-10T11:50:37.233Z,17.00
2019-05-10T11:53:13.238Z,17.20
2019-05-10T11:55:41.162Z,17.20
2019-05-10T11:58:13.178Z,17.40
2019-05-10T12:00:44.045Z,17.40
2019-05-10T12:03:18.313Z,17.30
2019-05-10T12:05:56.584Z,17.40
2019-05-10T12:08:22.980Z,17.40
2019-05-10T12:11:07.272Z,17.50
2019-05-10T12:13:26.683Z,17.40
2019-05-10T12:15:56.883Z,17.10
2019-05-10T12:18:27.181Z,17.20
2019-05-10T12:23:31.505Z,17.10
2019-05-10T12:26:31.417Z,17.20
2019-05-10T12:27:12.932Z,17.60
2019-05-10T12:28:35.871Z,18.10
2019-05-10T12:31:07.709Z,18.50
2019-05-10T12:33:37.570Z,18.80
2019-05-10T12:36:13.031Z,18.80
2019-05-10T12:38:39.731Z,19.10
2019-05-10T12:41:12.437Z,19.40
2019-05-10T12:43:43.679Z,19.60
2019-05-10T12:46:17.328Z,19.60
2019-05-10T12:48:47.000Z,19.70
2019-05-10T12:51:17.674Z,19.60
2019-05-10T12:53:49.791Z,19.10
2019-05-10T12:56:22.844Z,19.10
2019-05-10T12:58:57.891Z,19.20
2019-05-10T13:01:32.029Z,18.90
2019-05-10T13:04:01.997Z,19.10
2019-05-10T13:06:31.380Z,19.40
2019-05-10T13:09:01.852Z,19.80
2019-05-10T13:11:31.634Z,20.00
2019-05-10T13:14:07.507Z,20.30
2019-05-10T13:16:33.139Z,20.40
2019-05-10T13:19:03.531Z,20.40
2019-05-10T13:21:34.137Z,20.40
2019-05-10T13:24:04.763Z,20.50
2019-05-10T13:26:34.606Z,19.80
2019-05-10T13:29:08.240Z,19.60
2019-05-10T13:31:41.750Z,19.30
2019-05-10T13:34:07.837Z,19.50
2019-05-10T13:36:39.072Z,19.80
2019-05-10T13:39:10.168Z,19.80
2019-05-10T13:41:40.227Z,20.10
2019-05-10T13:44:11.585Z,20.20
2019-05-10T13:46:42.178Z,20.50
2019-05-10T13:49:12.365Z,20.60
2019-05-10T13:51:41.934Z,21.10
2019-05-10T13:54:11.619Z,21.40
2019-05-10T13:56:45.363Z,21.60
2019-05-10T13:59:16.003Z,21.80
2019-05-10T14:01:49.535Z,22.00
2019-05-10T14:04:16.245Z,22.20
2019-05-10T14:06:46.556Z,22.40
2019-05-10T14:09:16.442Z,22.50
2019-05-10T14:11:46.971Z,22.60
2019-05-10T14:14:20.583Z,22.50
2019-05-10T14:16:49.014Z,22.50
2019-05-10T14:19:22.747Z,22.50
2019-05-10T14:21:50.220Z,22.40
2019-05-10T14:24:21.013Z,22.30
2019-05-10T14:26:51.316Z,22.00
2019-05-10T14:29:33.430Z,21.50
2019-05-10T14:31:53.985Z,20.70
2019-05-10T14:34:23.638Z,20.60
2019-05-10T14:36:53.768Z,20.10
2019-05-10T14:39:24.161Z,19.80
2019-05-10T14:41:56.001Z,19.90
2019-05-10T14:44:25.623Z,19.40
2019-05-10T14:47:01.671Z,18.90
2019-05-10T14:49:31.955Z,18.60
2019-05-10T14:52:05.723Z,18.40
2019-05-10T14:54:43.287Z,18.50
2019-05-10T14:57:06.762Z,18.60
2019-05-10T14:59:36.265Z,18.40
2019-05-10T15:02:06.235Z,18.10
2019-05-10T15:04:45.206Z,17.80
2019-05-10T15:07:08.480Z,17.70
2019-05-10T15:09:38.783Z,17.60
2019-05-10T15:12:10.266Z,17.80
2019-05-10T15:14:41.337Z,17.90
2019-05-10T15:17:12.288Z,17.80
2019-05-10T15:19:42.743Z,17.70
2019-05-10T15:22:18.523Z,17.80
2019-05-10T15:24:44.331Z,17.90
2019-05-10T15:27:16.018Z,18.00
2019-05-10T15:29:45.643Z,18.10
2019-05-10T15:32:15.684Z,18.20
2019-05-10T15:35:04.346Z,18.10
2019-05-10T15:37:18.293Z,18.20
2019-05-10T15:39:48.041Z,18.40
2019-05-10T15:42:20.046Z,18.50
2019-05-10T15:44:50.483Z,18.70
2019-05-10T15:47:22.174Z,18.90
2019-05-10T15:49:54.467Z,18.70
2019-05-10T15:52:24.879Z,18.70
2019-05-10T15:54:54.741Z,18.60
2019-05-10T15:57:24.922Z,18.40
2019-05-10T15:59:56.429Z,18.10
2019-05-10T16:02:27.403Z,17.90
2019-05-10T16:04:57.540Z,17.90
2019-05-10T16:07:27.679Z,17.90
2019-05-10T16:09:57.501Z,17.80
2019-05-10T16:12:27.026Z,17.70
2019-05-10T16:14:56.806Z,17.60
2019-05-10T16:17:26.644Z,17.60
2019-05-10T16:19:59.750Z,17.90
2019-05-10T16:22:30.320Z,18.20
2019-05-10T16:25:02.454Z,18.40
2019-05-10T16:27:34.058Z,18.60
2019-05-10T16:30:02.921Z,18.50
2019-05-10T16:32:34.674Z,18.70
2019-05-10T16:35:12.395Z,18.70
2019-05-10T16:37:36.348Z,18.80
2019-05-10T16:40:07.011Z,19.10
2019-05-10T16:42:37.343Z,19.50
2019-05-10T16:45:10.076Z,19.70
2019-05-10T16:47:39.990Z,19.40
2019-05-10T16:50:10.979Z,19.40
2019-05-10T16:52:42.775Z,19.50
2019-05-10T16:55:12.777Z,19.60
2019-05-10T16:57:43.083Z,19.50
2019-05-10T17:00:15.807Z,19.60
2019-05-10T17:02:45.595Z,19.50
2019-05-10T17:05:17.131Z,19.40
2019-05-10T17:07:46.776Z,19.20
2019-05-10T17:10:16.562Z,19.10
2019-05-10T17:12:46.623Z,19.00
2019-05-10T17:15:16.391Z,18.80
2019-05-10T17:17:46.155Z,18.60
2019-05-10T17:20:16.590Z,18.50
2019-05-10T17:22:46.926Z,18.30
2019-05-10T17:25:17.220Z,18.10
2019-05-10T17:27:50.765Z,17.80
2019-05-10T17:30:21.828Z,17.40
2019-05-10T17:32:50.485Z,17.20
2019-05-10T17:35:20.080Z,17.00
2019-05-10T17:37:52.968Z,16.80
2019-05-10T17:40:22.725Z,16.70
2019-05-10T17:42:52.623Z,16.70
2019-05-10T17:45:22.741Z,16.60
2019-05-10T17:47:52.510Z,16.60
2019-05-10T17:50:23.239Z,16.50
2019-05-10T17:52:52.744Z,16.50
2019-05-10T17:55:25.444Z,16.30
2019-05-10T17:57:56.536Z,16.10
2019-05-10T18:00:26.668Z,15.80
2019-05-10T18:02:56.812Z,15.60
2019-05-10T18:05:27.242Z,15.50
2019-05-10T18:07:57.041Z,15.20
2019-05-10T18:10:27.465Z,15.10
2019-05-10T18:13:02.543Z,15.00
2019-05-10T18:15:33.000Z,14.80
2019-05-10T18:18:02.779Z,14.60
2019-05-10T18:20:41.149Z,14.50
2019-05-10T18:23:04.939Z,14.30
2019-05-10T18:25:34.830Z,14.20
2019-05-10T18:28:04.613Z,14.10
2019-05-10T18:30:34.628Z,13.90
2019-05-10T18:33:06.564Z,13.80
2019-05-10T18:35:36.249Z,13.60
2019-05-10T18:38:06.268Z,13.60
2019-05-10T18:40:36.725Z,13.50
2019-05-10T18:43:06.762Z,13.40
2019-05-10T18:45:36.550Z,13.30
2019-05-10T18:48:06.439Z,13.20
2019-05-10T18:50:39.628Z,13.10
2019-05-10T18:53:08.004Z,13.10
2019-05-10T18:55:38.390Z,13.10
2019-05-10T18:58:08.129Z,13.00
2019-05-10T19:00:40.193Z,12.90
2019-05-10T19:03:09.178Z,12.90
2019-05-10T19:05:39.347Z,12.70
2019-05-10T19:08:09.161Z,12.70
2019-05-10T19:10:39.315Z,12.60
2019-05-10T19:13:09.571Z,12.50
2019-05-10T19:15:39.633Z,12.50
2019-05-10T19:18:09.739Z,12.40
2019-05-10T19:20:39.957Z,12.40
2019-05-10T19:23:13.152Z,12.30
2019-05-10T19:25:45.573Z,12.20
2019-05-10T19:28:13.728Z,12.10
2019-05-10T19:30:43.795Z,12.00
2019-05-10T19:33:13.614Z,11.90
2019-05-10T19:35:45.743Z,11.90
2019-05-10T19:38:15.787Z,11.90
2019-05-10T19:40:45.928Z,11.90
2019-05-10T19:43:21.607Z,11.90
2019-05-10T19:45:51.166Z,11.80
2019-05-10T19:48:20.365Z,11.80
2019-05-10T19:50:50.275Z,11.80
2019-05-10T19:53:20.152Z,11.80
2019-05-10T19:55:57.215Z,11.80
2019-05-10T19:58:31.507Z,11.70
2019-05-10T20:00:56.370Z,11.60
2019-05-10T20:03:26.314Z,11.60
2019-05-10T20:05:56.089Z,11.50
2019-05-10T20:08:26.217Z,11.60
2019-05-10T20:10:55.746Z,11.60
2019-05-10T20:13:25.727Z,11.50
2019-05-10T20:16:14.296Z,11.40
2019-05-10T20:18:43.874Z,11.40
2019-05-10T20:21:13.642Z,11.30
2019-05-10T20:23:43.359Z,11.20
2019-05-10T20:26:13.632Z,11.20
2019-05-10T20:28:43.690Z,11.20
2019-05-10T20:31:14.681Z,11.30
2019-05-10T20:33:46.073Z,11.20
2019-05-10T20:36:15.588Z,11.30
2019-05-10T20:38:45.811Z,11.20
2019-05-10T20:41:15.941Z,11.20
2019-05-10T20:43:46.071Z,11.20
2019-05-10T20:46:15.607Z,11.20
2019-05-10T20:48:45.914Z,11.20
2019-05-10T20:51:16.005Z,11.30
2019-05-10T20:53:48.095Z,11.50
2019-05-10T20:56:18.393Z,11.60
2019-05-10T20:58:48.602Z,11.70
2019-05-10T21:01:18.448Z,11.80
2019-05-10T21:03:48.359Z,11.90
2019-05-10T21:06:18.102Z,12.00
2019-05-10T21:08:47.913Z,12.10
2019-05-10T21:11:17.827Z,12.10
2019-05-10T21:13:47.710Z,12.20
2019-05-10T21:16:17.265Z,12.20
2019-05-10T21:18:47.579Z,12.30
2019-05-10T21:21:17.932Z,12.40
2019-05-10T21:23:47.509Z,12.40
2019-05-10T21:26:18.351Z,12.40
2019-05-10T21:28:48.002Z,12.40
2019-05-10T21:31:17.850Z,12.40
2019-05-10T21:33:48.046Z,12.40
2019-05-10T21:36:18.608Z,12.40
2019-05-10T21:38:48.485Z,12.30
2019-05-10T21:41:18.127Z,12.40
2019-05-10T21:43:48.030Z,12.30
2019-05-10T21:46:17.640Z,12.20
2019-05-10T21:48:47.503Z,12.20
2019-05-10T21:51:17.042Z,12.10
2019-05-10T21:53:47.195Z,12.00
2019-05-10T21:56:17.096Z,12.00
2019-05-10T21:58:46.666Z,11.90
2019-05-10T22:01:16.533Z,11.80
2019-05-10T22:03:46.991Z,11.90
2019-05-10T22:06:16.978Z,11.80
2019-05-10T22:08:49.526Z,11.70
2019-05-10T22:11:18.901Z,11.50
2019-05-10T22:13:48.835Z,11.60
2019-05-10T22:16:19.135Z,11.50
2019-05-10T22:18:50.721Z,11.50
2019-05-10T22:21:20.290Z,11.50
2019-05-10T22:23:50.390Z,11.40
2019-05-10T22:26:20.179Z,11.40
2019-05-10T22:28:50.579Z,11.30
2019-05-10T22:31:20.743Z,11.30
2019-05-10T22:33:50.646Z,11.20
2019-05-10T22:36:21.266Z,11.20
2019-05-10T22:39:05.674Z,11.20
2019-05-10T22:41:22.858Z,11.20
2019-05-10T22:43:52.897Z,11.20
2019-05-10T22:46:23.395Z,11.10
2019-05-10T22:48:52.939Z,11.10
2019-05-10T22:51:22.779Z,11.10
2019-05-10T22:53:59.436Z,11.10
2019-05-10T22:56:24.622Z,11.10
2019-05-10T22:58:54.507Z,11.10
2019-05-10T23:01:24.296Z,11.20
2019-05-10T23:03:54.318Z,11.20
2019-05-10T23:06:24.157Z,11.20
2019-05-10T23:08:53.641Z,11.20
2019-05-10T23:11:23.475Z,11.20
2019-05-10T23:13:53.697Z,11.20
2019-05-10T23:16:23.543Z,11.40
2019-05-10T23:18:53.448Z,11.50
2019-05-10T23:21:23.743Z,11.50
2019-05-10T23:23:54.297Z,11.60
2019-05-10T23:26:24.474Z,11.60
2019-05-10T23:28:54.393Z,11.70
2019-05-10T23:31:23.883Z,11.80
2019-05-10T23:33:53.818Z,11.80
2019-05-10T23:36:23.711Z,11.80
2019-05-10T23:38:53.446Z,11.90
2019-05-10T23:41:23.336Z,11.90
2019-05-10T23:43:53.328Z,12.00
2019-05-10T23:46:22.795Z,12.10
2019-05-10T23:48:52.421Z,12.10
2019-05-10T23:51:22.743Z,12.10
2019-05-10T23:53:52.937Z,12.20
2019-05-10T23:56:22.778Z,12.20
2019-05-10T23:58:52.540Z,12.20
